Manoa, Pennsylvania
Current Conditions -  °F | °C
As of 3:54 AM on Saturday 29 Nov 2014 (Local Time) from KPHL Reporting Station
Scattered Clouds Scattered Clouds  
Wind Chill: 28°   Ceiling: Unl
Heat Index: 28°   Visibility: 10mi
Dew Point: 18°   Wind: 3mph
Humidity: 66%   Direction: 330°NNW
Pressure: 30.33"   Gusts: NA
Location:  39.9771°N, 75.3116°W
Report Text: KPHL 290854Z 33003KT 10SM SCT120 M02/M08 A3033 RMK AO2 SLP270 T10221078 50006 $
Loading
Personal Weather Stations






























Interactive Weather Map New forecast layout! Learn more

10-Day Weather Forecast

Advertisements
Track Severe Weather on mobile